Time;durP1;ratioP1;P1;durP2;ratioP2;P2;SDS_P1;SDS_P2;PMS_P1;PMS_P2;Temp;Humidity;BMP_temperature;BMP_pressure;BME280_temperature;BME280_humidity;BME280_pressure;Samples;Min_cycle;Max_cycle;Signal;HPM_P1;HPM_P2
2021/12/17 00:01:15;;;;;;;;;;;-1.00;89.20;;;;;;6044585;23;19917;-79
2021/12/17 00:03:47;;;;;;;;;;;-1.00;89.50;;;;;;6073527;23;19921;-78
2021/12/17 00:06:29;;;;;;;;;;;-1.00;89.30;;;;;;6068550;23;19917;-80
2021/12/17 00:08:56;;;;;;;;;;;-1.10;89.00;;;;;;6046813;23;19917;-79
2021/12/17 00:11:24;;;;;;;;;;;-1.10;89.20;;;;;;6042525;23;20521;-77
2021/12/17 00:13:53;;;;;;;;;;;-1.10;89.00;;;;;;6070039;23;19945;-80
2021/12/17 00:16:23;;;;;;;;;;;-1.10;88.90;;;;;;6067927;23;19925;-81
2021/12/17 00:49:02;;;;;;;;;;;-0.90;90.50;;;;;;6047580;23;19917;-79
2021/12/17 00:53:59;;;;;;;;;;;-0.90;90.30;;;;;;6067997;23;20258;-78
2021/12/17 00:56:26;;;;;;;;;;;-0.90;90.90;;;;;;6068261;23;19921;-80
2021/12/17 00:58:53;;;;;;;;;;;-1.00;90.60;;;;;;6044209;23;19925;-78
2021/12/17 01:01:20;;;;;;;;;;;-1.10;90.20;;;;;;6045110;23;19922;-79
2021/12/17 01:03:48;;;;;;;;;;;-1.10;90.00;;;;;;6043299;23;20383;-78
2021/12/17 01:06:15;;;;;;;;;;;-1.10;90.30;;;;;;6047932;23;19924;-81
2021/12/17 01:08:42;;;;;;;;;;;-1.10;90.20;;;;;;6071811;23;19918;-80
2021/12/17 01:11:09;;;;;;;;;;;-1.20;90.30;;;;;;6043476;23;19917;-79
2021/12/17 01:13:37;;;;;;;;;;;-1.20;90.20;;;;;;6045298;23;19922;-80
2021/12/17 01:16:04;;;;;;;;;;;-1.20;90.10;;;;;;6042472;23;19917;-78
2021/12/17 01:19:00;;;;;;;;;;;-1.20;90.30;;;;;;6045434;23;20484;-77
2021/12/17 01:21:32;;;;;;;;;;;-1.30;90.30;;;;;;6065889;23;19918;-78
2021/12/17 01:24:11;;;;;;;;;;;-1.30;90.10;;;;;;6045290;23;20284;-80
2021/12/17 01:42:53;;;;;;;;;;;-1.10;92.10;;;;;;6066455;23;19917;-81
2021/12/17 01:45:26;;;;;;;;;;;-1.10;91.60;;;;;;6044910;23;19921;-78
2021/12/17 01:47:52;;;;;;;;;;;-1.10;91.50;;;;;;6044690;23;19921;-78
2021/12/17 02:01:42;;;;;;;;;;;-1.20;90.80;;;;;;6067476;23;19921;-81
2021/12/17 02:04:09;;;;;;;;;;;-1.30;90.90;;;;;;6042341;23;19921;-81
2021/12/17 02:06:38;;;;;;;;;;;-1.30;91.10;;;;;;6043502;23;20003;-78
2021/12/17 02:09:24;;;;;;;;;;;-1.20;91.30;;;;;;6066469;23;19917;-80
2021/12/17 02:20:09;;;;;;;;;;;-1.40;91.40;;;;;;6067529;23;19918;-81
2021/12/17 02:33:37;;;;;;;;;;;-1.50;91.10;;;;;;6021223;23;19917;-79
2021/12/17 02:36:05;;;;;;;;;;;-1.40;91.20;;;;;;6043973;23;19997;-77
2021/12/17 02:38:36;;;;;;;;;;;-1.40;91.10;;;;;;6022060;23;19926;-77
2021/12/17 02:46:39;;;;;;;;;;;-1.40;91.00;;;;;;6068893;23;19921;-81
2021/12/17 02:49:07;;;;;;;;;;;-1.40;91.20;;;;;;6044059;23;19918;-78
2021/12/17 02:51:34;;;;;;;;;;;-1.40;91.50;;;;;;6043825;23;19981;-78
2021/12/17 02:54:01;;;;;;;;;;;-1.30;91.50;;;;;;6045736;23;19918;-79
2021/12/17 02:56:28;;;;;;;;;;;-1.20;92.00;;;;;;6045062;23;19972;-78
2021/12/17 02:58:55;;;;;;;;;;;-1.20;92.00;;;;;;6044055;23;19917;-77
2021/12/17 03:01:23;;;;;;;;;;;-1.20;91.90;;;;;;6044102;23;19968;-77
2021/12/17 03:03:52;;;;;;;;;;;-1.20;92.00;;;;;;6067106;23;19933;-79
2021/12/17 03:06:19;;;;;;;;;;;-1.20;92.10;;;;;;6069716;23;20667;-79
2021/12/17 03:08:47;;;;;;;;;;;-1.20;92.20;;;;;;6069962;23;19918;-81
2021/12/17 03:11:15;;;;;;;;;;;-1.20;92.10;;;;;;6069075;23;19918;-79
2021/12/17 03:13:44;;;;;;;;;;;-1.30;92.30;;;;;;6068831;23;20358;-79
2021/12/17 03:17:00;;;;;;;;;;;-1.30;92.50;;;;;;6044863;23;19917;-77
2021/12/17 03:19:24;;;;;;;;;;;-1.30;92.50;;;;;;6057709;23;20686;-79
2021/12/17 03:24:36;;;;;;;;;;;-1.30;92.20;;;;;;6069164;23;19918;-78
2021/12/17 03:27:04;;;;;;;;;;;-1.40;92.00;;;;;;6043811;23;19981;-79
2021/12/17 03:29:35;;;;;;;;;;;-1.40;92.00;;;;;;6045023;23;19928;-80
2021/12/17 03:32:02;;;;;;;;;;;-1.40;92.10;;;;;;6041460;23;20332;-78
2021/12/17 03:34:30;;;;;;;;;;;-1.40;92.10;;;;;;6067869;23;19917;-80
2021/12/17 03:36:57;;;;;;;;;;;-1.40;92.10;;;;;;6042698;23;19918;-80
2021/12/17 03:39:38;;;;;;;;;;;-1.40;92.10;;;;;;6070783;23;19918;-79
2021/12/17 03:42:07;;;;;;;;;;;-1.30;92.10;;;;;;6068173;23;20513;-79
2021/12/17 03:44:34;;;;;;;;;;;-1.30;92.30;;;;;;6069678;23;20394;-78
2021/12/17 03:47:03;;;;;;;;;;;-1.30;92.40;;;;;;6043821;23;19921;-79
2021/12/17 03:49:32;;;;;;;;;;;-1.20;92.50;;;;;;6044792;23;19917;-81
2021/12/17 03:52:05;;;;;;;;;;;-1.20;92.50;;;;;;6042629;23;19928;-81
2021/12/17 03:54:33;;;;;;;;;;;-1.20;92.90;;;;;;6045190;23;20354;-79
2021/12/17 03:57:01;;;;;;;;;;;-1.10;92.60;;;;;;6042983;23;19949;-77
2021/12/17 03:59:27;;;;;;;;;;;-1.10;92.50;;;;;;6070079;23;19942;-79
2021/12/17 04:01:54;;;;;;;;;;;-1.20;92.40;;;;;;6068468;23;19922;-78
2021/12/17 04:04:21;;;;;;;;;;;-1.20;92.50;;;;;;6044172;23;19922;-79
2021/12/17 04:06:48;;;;;;;;;;;-1.20;92.30;;;;;;6043436;23;19977;-79
2021/12/17 04:09:19;;;;;;;;;;;-1.20;92.30;;;;;;6045903;23;19917;-79
2021/12/17 04:11:47;;;;;;;;;;;-1.20;92.10;;;;;;6043148;23;19988;-81
2021/12/17 04:14:14;;;;;;;;;;;-1.30;91.90;;;;;;6043156;23;19918;-77
2021/12/17 04:16:40;;;;;;;;;;;-1.30;91.90;;;;;;6044168;23;19922;-81
2021/12/17 04:19:08;;;;;;;;;;;-1.40;92.00;;;;;;6042833;23;19917;-79
2021/12/17 04:21:34;;;;;;;;;;;-1.40;92.00;;;;;;6044437;23;19921;-80
2021/12/17 04:24:01;;;;;;;;;;;-1.40;92.00;;;;;;6043633;23;19942;-79
2021/12/17 04:26:28;;;;;;;;;;;-1.40;91.80;;;;;;6043929;23;20418;-79
2021/12/17 04:28:55;;;;;;;;;;;-1.40;91.70;;;;;;6043195;23;19925;-79
2021/12/17 04:31:25;;;;;;;;;;;-1.50;91.80;;;;;;6043493;23;19918;-80
2021/12/17 04:33:52;;;;;;;;;;;-1.50;91.80;;;;;;6043168;23;19924;-79
2021/12/17 04:36:25;;;;;;;;;;;-1.60;91.60;;;;;;6044143;23;20259;-79
2021/12/17 04:38:52;;;;;;;;;;;-1.60;91.70;;;;;;6069241;23;19947;-79
2021/12/17 04:57:29;;;;;;;;;;;-1.70;91.40;;;;;;6069391;23;20259;-81
2021/12/17 04:59:59;;;;;;;;;;;-1.70;91.60;;;;;;6043771;23;20382;-78
2021/12/17 05:02:27;;;;;;;;;;;-1.80;91.40;;;;;;6042739;23;19922;-80
2021/12/17 05:04:54;;;;;;;;;;;-1.70;91.50;;;;;;6044686;23;19918;-79
2021/12/17 05:07:23;;;;;;;;;;;-1.80;91.40;;;;;;6067808;23;20335;-81
2021/12/17 05:10:22;;;;;;;;;;;-1.70;91.70;;;;;;6044046;23;19921;-80
2021/12/17 05:18:16;;;;;;;;;;;-1.70;91.50;;;;;;6070189;23;19917;-79
2021/12/17 05:20:49;;;;;;;;;;;-1.70;91.40;;;;;;6044710;23;19921;-79
2021/12/17 05:23:21;;;;;;;;;;;-1.70;91.50;;;;;;6044509;23;20293;-77
2021/12/17 05:25:49;;;;;;;;;;;-1.70;91.20;;;;;;6043225;23;19922;-81
2021/12/17 05:28:16;;;;;;;;;;;-1.80;91.50;;;;;;6043155;23;20303;-80
2021/12/17 05:30:47;;;;;;;;;;;-1.80;91.40;;;;;;6019643;23;19921;-80
2021/12/17 05:33:14;;;;;;;;;;;-1.80;91.50;;;;;;6042444;23;19917;-77
2021/12/17 05:35:41;;;;;;;;;;;-1.80;91.40;;;;;;6070423;23;19984;-78
2021/12/17 05:38:09;;;;;;;;;;;-1.90;91.40;;;;;;6042936;23;20162;-81
2021/12/17 05:40:36;;;;;;;;;;;-1.90;91.60;;;;;;6043364;23;19969;-78
2021/12/17 05:43:05;;;;;;;;;;;-1.90;91.60;;;;;;6042816;23;19981;-81
2021/12/17 05:48:00;;;;;;;;;;;-1.80;91.80;;;;;;6069555;23;19929;-79
2021/12/17 05:50:28;;;;;;;;;;;-1.80;91.70;;;;;;6044503;23;20365;-80
2021/12/17 05:52:55;;;;;;;;;;;-1.80;91.70;;;;;;6042052;23;19953;-81
2021/12/17 05:55:22;;;;;;;;;;;-1.70;92.00;;;;;;6043926;23;19921;-78
2021/12/17 05:57:49;;;;;;;;;;;-1.80;91.70;;;;;;6065369;23;20354;-80
2021/12/17 06:00:16;;;;;;;;;;;-1.70;92.10;;;;;;6043465;23;19985;-79
2021/12/17 06:02:43;;;;;;;;;;;-1.70;92.00;;;;;;6042315;23;19917;-79
2021/12/17 06:05:10;;;;;;;;;;;-1.60;92.10;;;;;;6041935;23;19917;-79
2021/12/17 06:07:40;;;;;;;;;;;-1.60;92.10;;;;;;6066324;23;19945;-79
2021/12/17 06:10:09;;;;;;;;;;;-1.60;92.00;;;;;;6070029;23;20391;-79
2021/12/17 06:12:37;;;;;;;;;;;-1.60;91.90;;;;;;6047214;23;19965;-79
2021/12/17 06:15:05;;;;;;;;;;;-1.60;92.00;;;;;;6067637;23;19925;-79
2021/12/17 06:17:32;;;;;;;;;;;-1.70;91.60;;;;;;6069567;23;19918;-79
2021/12/17 06:19:59;;;;;;;;;;;-1.70;91.90;;;;;;6069983;23;19917;-79
2021/12/17 06:22:31;;;;;;;;;;;-1.80;92.10;;;;;;6067943;23;20395;-79
2021/12/17 06:24:58;;;;;;;;;;;-1.70;92.40;;;;;;6069147;23;20352;-80
2021/12/17 06:27:25;;;;;;;;;;;-1.60;92.70;;;;;;6044398;23;20366;-78
2021/12/17 06:29:52;;;;;;;;;;;-1.30;93.70;;;;;;6043622;23;19918;-79
2021/12/17 06:32:20;;;;;;;;;;;-1.20;93.70;;;;;;6068793;23;19925;-80
2021/12/17 06:34:48;;;;;;;;;;;-1.10;93.90;;;;;;6068432;23;19937;-79
2021/12/17 06:37:15;;;;;;;;;;;-1.00;94.00;;;;;;6069978;23;19925;-79
2021/12/17 06:39:42;;;;;;;;;;;-1.00;93.90;;;;;;6047370;23;19917;-79
2021/12/17 06:42:10;;;;;;;;;;;-1.00;93.70;;;;;;6043850;23;19933;-80
2021/12/17 06:44:38;;;;;;;;;;;-1.00;93.50;;;;;;6068028;23;19924;-79
2021/12/17 06:47:13;;;;;;;;;;;-1.00;93.50;;;;;;6045122;23;19973;-80
2021/12/17 07:06:05;;;;;;;;;;;-1.20;92.90;;;;;;6074471;23;19924;-80
2021/12/17 07:21:58;;;;;;;;;;;-1.30;93.10;;;;;;6069228;23;19968;-78
2021/12/17 07:35:45;;;;;;;;;;;-1.20;93.10;;;;;;6048781;23;19981;-80
2021/12/17 07:40:58;;;;;;;;;;;-1.00;92.80;;;;;;6069144;23;19921;-79
2021/12/17 07:43:28;;;;;;;;;;;-0.20;92.20;;;;;;6068504;23;20358;-80
2021/12/17 07:45:56;;;;;;;;;;;0.40;91.10;;;;;;6045536;23;19932;-80
2021/12/17 07:48:23;;;;;;;;;;;1.00;88.90;;;;;;6045520;23;19917;-81
2021/12/17 07:50:50;;;;;;;;;;;1.40;85.90;;;;;;6045510;23;19921;-80
2021/12/17 07:53:17;;;;;;;;;;;1.90;84.10;;;;;;6045873;23;19917;-80
2021/12/17 07:55:44;;;;;;;;;;;2.20;82.80;;;;;;6043801;23;20407;-80
2021/12/17 07:58:11;;;;;;;;;;;2.30;82.10;;;;;;6070017;23;20347;-81
2021/12/17 08:00:39;;;;;;;;;;;2.30;81.60;;;;;;6045811;23;19918;-80
2021/12/17 08:03:06;;;;;;;;;;;2.20;81.60;;;;;;6068759;23;19917;-80
2021/12/17 08:05:33;;;;;;;;;;;2.10;81.50;;;;;;6046153;23;20291;-80
2021/12/17 08:08:00;;;;;;;;;;;1.80;83.10;;;;;;6045088;23;19918;-80
2021/12/17 08:10:26;;;;;;;;;;;1.40;85.50;;;;;;6046505;23;19985;-79
2021/12/17 08:12:55;;;;;;;;;;;1.40;86.50;;;;;;6047336;23;19917;-79
2021/12/17 08:15:30;;;;;;;;;;;1.40;86.40;;;;;;6051558;23;19921;-78
2021/12/17 08:28:50;;;;;;;;;;;1.40;86.50;;;;;;6077356;23;19917;-80
2021/12/17 08:31:18;;;;;;;;;;;1.50;86.10;;;;;;6076228;23;19913;-79
2021/12/17 08:33:45;;;;;;;;;;;1.60;85.80;;;;;;6054041;23;19921;-79
2021/12/17 08:36:14;;;;;;;;;;;1.70;85.60;;;;;;6054848;23;19918;-79
2021/12/17 08:38:45;;;;;;;;;;;1.70;85.70;;;;;;6049123;23;19921;-79
2021/12/17 08:41:12;;;;;;;;;;;1.80;86.40;;;;;;6047476;23;20402;-79
2021/12/17 08:43:40;;;;;;;;;;;1.90;86.80;;;;;;6046858;23;20362;-80
2021/12/17 08:46:07;;;;;;;;;;;2.10;86.70;;;;;;6073398;23;19917;-79
2021/12/17 08:48:34;;;;;;;;;;;2.10;86.60;;;;;;6053781;23;19914;-80
2021/12/17 08:51:01;;;;;;;;;;;2.10;86.90;;;;;;6052911;23;20328;-80
2021/12/17 08:53:27;;;;;;;;;;;2.20;86.50;;;;;;6051673;23;20283;-79
2021/12/17 08:55:54;;;;;;;;;;;2.20;87.00;;;;;;6043833;23;19918;-79
2021/12/17 08:58:21;;;;;;;;;;;2.20;87.70;;;;;;6057772;23;19923;-79
2021/12/17 09:00:52;;;;;;;;;;;2.30;87.70;;;;;;6053478;23;20353;-80
2021/12/17 09:03:21;;;;;;;;;;;2.40;87.70;;;;;;6054249;23;19918;-80
2021/12/17 09:05:48;;;;;;;;;;;2.50;87.70;;;;;;6054816;23;19901;-80
2021/12/17 09:08:16;;;;;;;;;;;2.60;87.50;;;;;;6052428;23;19906;-80
2021/12/17 09:10:47;;;;;;;;;;;2.70;87.40;;;;;;6083385;23;19902;-79
2021/12/17 09:13:14;;;;;;;;;;;2.80;86.90;;;;;;6044698;23;20295;-81
2021/12/17 09:15:42;;;;;;;;;;;2.90;86.90;;;;;;6043059;23;19945;-80
2021/12/17 09:18:09;;;;;;;;;;;2.90;86.50;;;;;;6072668;23;19972;-80
2021/12/17 09:20:37;;;;;;;;;;;3.00;86.50;;;;;;6081792;23;19933;-79
2021/12/17 09:23:04;;;;;;;;;;;3.10;86.30;;;;;;6048287;23;19928;-80
2021/12/17 09:25:31;;;;;;;;;;;3.20;86.80;;;;;;6053213;23;20347;-81
2021/12/17 09:27:57;;;;;;;;;;;3.20;86.60;;;;;;6045232;23;19917;-78
2021/12/17 09:30:24;;;;;;;;;;;3.40;86.80;;;;;;6044475;23;19921;-80
2021/12/17 09:32:53;;;;;;;;;;;3.50;85.40;;;;;;6049476;23;22469;-81
2021/12/17 09:35:21;;;;;;;;;;;3.50;85.20;;;;;;6042514;23;19930;-81
2021/12/17 09:37:48;;;;;;;;;;;3.60;85.30;;;;;;6045418;23;19921;-77
2021/12/17 09:40:14;;;;;;;;;;;3.80;85.30;;;;;;6068781;23;19925;-81
2021/12/17 09:42:42;;;;;;;;;;;3.90;85.10;;;;;;6047380;23;19938;-79
2021/12/17 09:45:09;;;;;;;;;;;4.10;84.80;;;;;;6078961;23;19933;-79
2021/12/17 09:47:36;;;;;;;;;;;4.20;83.50;;;;;;6052293;23;19931;-80
2021/12/17 09:50:04;;;;;;;;;;;4.30;84.10;;;;;;6075663;23;20344;-79
2021/12/17 09:52:30;;;;;;;;;;;4.50;83.50;;;;;;6051103;23;19922;-78
2021/12/17 09:54:57;;;;;;;;;;;4.60;82.30;;;;;;6050671;23;19921;-78
2021/12/17 09:57:25;;;;;;;;;;;4.70;82.90;;;;;;6068181;23;19926;-80
2021/12/17 09:59:56;;;;;;;;;;;4.80;83.10;;;;;;6097859;23;19996;-79
2021/12/17 10:02:23;;;;;;;;;;;5.00;82.20;;;;;;6073172;23;20345;-80
2021/12/17 10:04:54;;;;;;;;;;;5.10;81.80;;;;;;6080002;23;19906;-78
2021/12/17 10:07:25;;;;;;;;;;;5.30;80.70;;;;;;6101871;23;19921;-78
2021/12/17 10:09:52;;;;;;;;;;;5.40;79.90;;;;;;6094806;23;19922;-80
2021/12/17 10:12:26;;;;;;;;;;;5.50;79.10;;;;;;6099411;23;20373;-78
2021/12/17 10:14:59;;;;;;;;;;;5.60;79.00;;;;;;6100765;23;19973;-79
2021/12/17 10:17:26;;;;;;;;;;;5.70;78.60;;;;;;6100019;23;20332;-78
2021/12/17 10:19:53;;;;;;;;;;;5.90;78.30;;;;;;6095246;23;19926;-80
2021/12/17 10:22:21;;;;;;;;;;;6.00;77.90;;;;;;6094206;23;19925;-80
2021/12/17 10:24:59;;;;;;;;;;;6.10;76.60;;;;;;6099782;23;19921;-80
2021/12/17 10:27:28;;;;;;;;;;;6.20;76.40;;;;;;6098867;23;19921;-79
2021/12/17 10:29:55;;;;;;;;;;;6.30;76.20;;;;;;6104552;23;19972;-79
2021/12/17 10:32:24;;;;;;;;;;;6.50;75.30;;;;;;6099520;23;20307;-80
2021/12/17 10:35:04;;;;;;;;;;;6.60;73.00;;;;;;6099110;23;20339;-78
2021/12/17 10:37:37;;;;;;;;;;;6.70;72.70;;;;;;6096669;23;19925;-78
2021/12/17 10:40:14;;;;;;;;;;;6.80;73.10;;;;;;6100706;23;20709;-80
2021/12/17 10:42:49;;;;;;;;;;;6.80;71.90;;;;;;6102793;23;19935;-79
2021/12/17 10:45:24;;;;;;;;;;;6.90;72.40;;;;;;6098566;23;19928;-77
2021/12/17 10:48:19;;;;;;;;;;;7.10;72.20;;;;;;6079904;23;19921;-79
2021/12/17 10:50:47;;;;;;;;;;;7.20;71.80;;;;;;6094248;23;19936;-78
2021/12/17 10:53:15;;;;;;;;;;;7.40;71.30;;;;;;6094981;23;19973;-80
2021/12/17 10:55:46;;;;;;;;;;;7.60;70.10;;;;;;6098583;23;19921;-80
2021/12/17 10:58:13;;;;;;;;;;;7.90;69.20;;;;;;6083028;23;19958;-78
2021/12/17 11:01:01;;;;;;;;;;;8.00;68.50;;;;;;6080752;23;20408;-79
2021/12/17 11:03:29;;;;;;;;;;;8.20;68.70;;;;;;6102687;23;19922;-79
2021/12/17 11:05:56;;;;;;;;;;;8.50;66.40;;;;;;6116572;23;19925;-78
2021/12/17 11:08:28;;;;;;;;;;;8.60;66.40;;;;;;6096406;23;19932;-80
2021/12/17 11:10:58;;;;;;;;;;;8.80;65.80;;;;;;6100224;23;19931;-80
2021/12/17 11:13:26;;;;;;;;;;;8.90;65.90;;;;;;6112130;23;19905;-80
2021/12/17 11:15:53;;;;;;;;;;;9.10;64.90;;;;;;6095599;23;19925;-77
2021/12/17 11:18:20;;;;;;;;;;;9.30;64.80;;;;;;6099924;23;19924;-81
2021/12/17 11:20:47;;;;;;;;;;;9.40;63.90;;;;;;6103343;23;20343;-77
2021/12/17 11:23:16;;;;;;;;;;;9.50;63.80;;;;;;6099216;23;19925;-80
2021/12/17 11:25:50;;;;;;;;;;;9.60;62.30;;;;;;6098937;23;19925;-78
2021/12/17 11:28:17;;;;;;;;;;;9.70;62.20;;;;;;6078384;23;19972;-77
2021/12/17 11:30:46;;;;;;;;;;;9.80;62.50;;;;;;6100453;23;19925;-81
2021/12/17 11:33:13;;;;;;;;;;;9.90;62.30;;;;;;6106332;23;19929;-79
2021/12/17 11:35:46;;;;;;;;;;;9.90;62.00;;;;;;6078237;23;20339;-80
2021/12/17 11:38:20;;;;;;;;;;;9.90;61.40;;;;;;6101094;23;19980;-79
2021/12/17 11:40:52;;;;;;;;;;;10.00;61.50;;;;;;6099727;23;19928;-81
2021/12/17 11:43:38;;;;;;;;;;;9.90;61.60;;;;;;6097155;23;20344;-81
2021/12/17 11:46:11;;;;;;;;;;;10.00;62.80;;;;;;6097805;23;20004;-81
2021/12/17 11:48:37;;;;;;;;;;;10.10;62.00;;;;;;6075684;23;19921;-79
2021/12/17 11:51:12;;;;;;;;;;;10.20;61.40;;;;;;6103444;23;19910;-80
2021/12/17 11:53:59;;;;;;;;;;;10.10;61.00;;;;;;6097781;23;20304;-81
2021/12/17 11:56:33;;;;;;;;;;;10.10;61.70;;;;;;6097137;23;20008;-80
2021/12/17 11:59:00;;;;;;;;;;;10.20;61.20;;;;;;6099847;23;19921;-79
2021/12/17 12:01:47;;;;;;;;;;;10.30;60.00;;;;;;6075519;23;19922;-79
2021/12/17 12:04:40;;;;;;;;;;;10.40;60.30;;;;;;6096557;23;20295;-80
2021/12/17 12:07:08;;;;;;;;;;;10.50;59.60;;;;;;6057394;23;19921;-80
2021/12/17 12:09:57;;;;;;;;;;;10.50;59.60;;;;;;6072873;23;19921;-81
2021/12/17 12:12:24;;;;;;;;;;;10.50;60.00;;;;;;6097037;23;19932;-80
2021/12/17 12:14:51;;;;;;;37.53;26.77;;;10.60;59.30;;;;;;6093417;23;19929;-80
2021/12/17 12:17:55;;;;;;;37.42;27.77;;;10.70;59.40;;;;;;6072906;23;20077;-80
2021/12/17 12:20:38;;;;;;;;;;;10.80;59.30;;;;;;6070491;23;20026;-78
2021/12/17 12:23:37;;;;;;;;;;;10.90;58.40;;;;;;6101483;23;19925;-79
2021/12/17 12:26:04;;;;;;;;;;;11.00;56.90;;;;;;6051273;23;19960;-80
2021/12/17 12:28:49;;;;;;;;;;;11.10;57.60;;;;;;6097591;23;19928;-79
2021/12/17 12:31:27;;;;;;;;;;;11.30;57.40;;;;;;6097731;23;19948;-80
2021/12/17 12:34:06;;;;;;;;;;;11.30;56.70;;;;;;6094182;23;20335;-78
2021/12/17 12:37:12;;;;;;;;;;;11.40;56.50;;;;;;6096944;23;19917;-81
2021/12/17 12:39:45;;;;;;;;;;;11.40;56.50;;;;;;6093525;23;19921;-78
2021/12/17 12:42:16;;;;;;;;;;;11.40;56.30;;;;;;6097480;23;19917;-78
2021/12/17 12:44:46;;;;;;;;;;;11.50;56.10;;;;;;6099078;23;19972;-77
2021/12/17 12:47:15;;;;;;;;;;;11.60;56.00;;;;;;6096513;23;19925;-77
2021/12/17 12:49:43;;;;;;;;;;;11.60;55.80;;;;;;6095601;23;19951;-78
2021/12/17 12:52:14;;;;;;;;;;;11.70;55.90;;;;;;6100891;23;19906;-81
2021/12/17 12:54:40;;;;;;;;;;;11.80;56.50;;;;;;6096491;23;19969;-81
2021/12/17 12:57:08;;;;;;;;;;;11.90;55.30;;;;;;6094077;23;19988;-81
2021/12/17 12:59:35;;;;;;;;;;;11.90;55.10;;;;;;6095482;23;19921;-81
2021/12/17 13:02:02;;;;;;;;;;;11.90;54.30;;;;;;6095125;23;19932;-81
2021/12/17 13:04:33;;;;;;;;;;;11.80;54.80;;;;;;6095463;23;20335;-78
2021/12/17 13:07:00;;;;;;;;;;;11.70;55.30;;;;;;6096710;23;19980;-81
2021/12/17 13:09:28;;;;;;;;;;;11.70;55.60;;;;;;6097977;23;20357;-77
2021/12/17 13:11:55;;;;;;;;;;;11.70;55.60;;;;;;6096736;23;19969;-77
2021/12/17 13:14:25;;;;;;;;;;;11.70;56.20;;;;;;6097907;23;19941;-80
2021/12/17 13:17:16;;;;;;;;;;;11.70;56.20;;;;;;6095808;23;20018;-78
2021/12/17 13:22:55;;;;;;;;;;;11.60;55.80;;;;;;6098154;23;19968;-81
2021/12/17 13:25:26;;;;;;;;;;;11.70;55.90;;;;;;6095709;23;19918;-80
2021/12/17 13:27:54;;;;;;;;;;;11.70;56.20;;;;;;6071883;23;19921;-80
2021/12/17 13:30:24;;;;;;;;;;;11.70;56.10;;;;;;6097345;23;19917;-80
2021/12/17 13:32:52;;;;;;;;;;;11.80;56.20;;;;;;6073703;23;19964;-81
2021/12/17 13:35:19;;;;;;;;;;;11.90;56.10;;;;;;6095832;23;19924;-80
2021/12/17 13:37:45;;;;;;;;;;;11.80;55.60;;;;;;6096933;23;19921;-79
2021/12/17 13:40:12;;;;;;;;;;;11.80;56.10;;;;;;6096451;23;19917;-79
2021/12/17 13:42:42;;;;;;;;;;;11.80;56.00;;;;;;6096006;23;19927;-80
2021/12/17 13:45:10;;;;;;;;;;;11.80;56.50;;;;;;6095815;23;19929;-80
2021/12/17 13:47:40;;;;;;;;;;;11.70;55.90;;;;;;6097012;23;20382;-81
2021/12/17 13:50:14;;;;;;;;;;;11.60;56.80;;;;;;6095201;23;19968;-80
2021/12/17 13:52:44;;;;;;;;;;;11.60;56.60;;;;;;6094571;23;19917;-78
2021/12/17 13:55:12;;;;;;;;;;;11.60;56.70;;;;;;6090464;23;20303;-80
2021/12/17 13:57:41;;;;;;;;;;;11.50;56.50;;;;;;6085364;23;19928;-80
2021/12/17 14:00:13;;;;;;;;;;;11.50;57.20;;;;;;6088578;23;19924;-81
2021/12/17 14:02:40;;;;;;;;;;;11.40;57.00;;;;;;6068477;23;19921;-80
2021/12/17 14:05:10;;;;;;;;;;;11.40;57.50;;;;;;6089975;23;19948;-78
2021/12/17 14:07:38;;;;;;;;;;;11.30;57.10;;;;;;6092288;23;19922;-80
2021/12/17 14:10:07;;;;;;;;;;;11.20;57.50;;;;;;6093648;23;20336;-79
2021/12/17 14:12:37;;;;;;;;;;;11.30;58.30;;;;;;6093610;23;19985;-79
2021/12/17 14:15:27;;;;;;;;;;;11.30;57.90;;;;;;6085997;23;19953;-79
2021/12/17 14:17:55;;;;;;;;;;;11.30;57.60;;;;;;6094648;23;19933;-78
2021/12/17 14:20:24;;;;;;;;;;;11.30;57.20;;;;;;6088840;23;20001;-78
2021/12/17 14:22:53;;;;;;;;;;;11.30;57.90;;;;;;6092519;23;20358;-77
2021/12/17 14:25:28;;;;;;;;;;;11.30;58.00;;;;;;6091197;23;19925;-81
2021/12/17 14:27:56;;;;;;;;;;;11.40;58.30;;;;;;6092558;23;19953;-79
2021/12/17 14:30:33;;;;;;;;;;;11.50;58.10;;;;;;6092922;23;19969;-80
2021/12/17 14:33:05;;;;;;;;;;;11.40;57.40;;;;;;6071101;23;19922;-80
2021/12/17 14:35:43;;;;;;;;;;;11.40;58.00;;;;;;6095406;23;19917;-79
2021/12/17 14:38:10;;;;;;;;;;;11.30;58.10;;;;;;6095962;23;19921;-78
2021/12/17 14:40:48;;;;;;;;;;;11.30;57.90;;;;;;6091537;23;19917;-81
2021/12/17 14:43:24;;;;;;;;;;;11.20;57.20;;;;;;6091834;23;19941;-80
2021/12/17 14:46:12;;;;;;;;;;;11.10;57.90;;;;;;6091996;23;19924;-80
2021/12/17 15:05:14;;;;;;;;;;;11.10;58.50;;;;;;6100262;23;19964;-80
2021/12/17 15:07:41;;;;;;;;;;;11.00;58.80;;;;;;6100128;23;19924;-78
2021/12/17 15:10:09;;;;;;;;;;;10.90;59.40;;;;;;6103580;23;19924;-79
2021/12/17 15:12:40;;;;;;;;;;;10.80;58.80;;;;;;6098749;23;19924;-77
2021/12/17 15:15:15;;;;;;;;;;;10.70;59.10;;;;;;6100746;23;19924;-80
2021/12/17 15:17:43;;;;;;;;;;;10.60;60.20;;;;;;6095839;23;19945;-78
2021/12/17 15:20:19;;;;;;;;;;;10.50;60.70;;;;;;6097268;23;19995;-77
2021/12/17 15:22:46;;;;;;;;;;;10.30;60.80;;;;;;6101637;23;19917;-79
2021/12/17 15:25:14;;;;;;;;;;;10.00;61.30;;;;;;6096800;23;19917;-77
2021/12/17 15:27:41;;;;;;;;;;;9.70;62.50;;;;;;6097476;23;19917;-79
2021/12/17 15:30:36;;;;;;;;;;;9.50;62.80;;;;;;6105053;23;19969;-79
2021/12/17 15:33:03;;;;;;;;;;;9.40;63.20;;;;;;6099078;23;19996;-78
2021/12/17 15:35:30;;;;;;;;;;;9.20;63.60;;;;;;6096340;23;19917;-78
2021/12/17 15:37:58;;;;;;;;;;;9.10;64.00;;;;;;6100512;23;19921;-80
2021/12/17 15:40:29;;;;;;;;;;;8.90;64.60;;;;;;6100770;23;19927;-80
2021/12/17 15:43:02;;;;;;;;;;;8.70;64.80;;;;;;6101862;23;20338;-78
2021/12/17 15:45:34;;;;;;;;;;;8.40;66.00;;;;;;6103066;23;19941;-79
2021/12/17 15:48:01;;;;;;;;;;;8.20;66.30;;;;;;6101893;23;19921;-77
2021/12/17 15:50:48;;;;;;;;;;;7.90;66.90;;;;;;6097823;23;19972;-79
2021/12/17 15:53:16;;;;;;;;;;;7.70;67.90;;;;;;6104549;23;19921;-79
2021/12/17 15:55:43;;;;;;;;;;;7.50;68.10;;;;;;6097595;23;19917;-78
2021/12/17 15:58:12;;;;;;;;;;;7.40;68.00;;;;;;6076851;23;19917;-78
2021/12/17 16:00:42;;;;;;;;;;;7.30;68.20;;;;;;6099549;23;19921;-79
2021/12/17 16:03:09;;;;;;;;;;;7.20;68.70;;;;;;6106822;23;19928;-78
2021/12/17 16:05:37;;;;;;;;;;;7.00;68.90;;;;;;6105811;23;19966;-78
2021/12/17 16:08:05;;;;;;;;;;;6.80;69.40;;;;;;6106007;23;20410;-79
2021/12/17 16:20:59;;;;;;;;;;;6.30;72.10;;;;;;6096778;23;20414;-77
2021/12/17 16:21:42;;;;;;;;;;;6.20;72.30;;;;;;6101085;23;20476;-78
2021/12/17 16:24:09;;;;;;;;;;;5.90;72.80;;;;;;6096670;23;19952;-79
2021/12/17 16:26:36;;;;;;;;;;;5.80;72.40;;;;;;6073279;23;19917;-79
2021/12/17 16:29:04;;;;;;;;;;;5.70;73.00;;;;;;6101642;23;20335;-79
2021/12/17 16:31:31;;;;;;;;;;;5.50;73.30;;;;;;6095666;23;20335;-77
2021/12/17 16:34:01;;;;;;;;;;;5.50;73.20;;;;;;6073177;23;19917;-77
2021/12/17 16:36:34;;;;;;;;;;;5.30;73.30;;;;;;6097319;23;19940;-78
2021/12/17 16:39:02;;;;;;;;;;;5.20;73.60;;;;;;6098665;23;19923;-79
2021/12/17 16:41:29;;;;;;;;;;;5.20;73.80;;;;;;6083939;23;20351;-79
2021/12/17 16:44:02;;;;;;;;;;;5.10;74.80;;;;;;6106345;23;19921;-77
2021/12/17 16:49:07;;;;;;;;;;;4.90;75.80;;;;;;6105303;23;19927;-78
2021/12/17 16:51:34;;;;;;;;;;;4.80;76.00;;;;;;6108483;23;19941;-78
2021/12/17 16:54:00;;;;;;;;;;;4.70;76.40;;;;;;6105809;23;19917;-77
2021/12/17 16:56:28;;;;;;;;;;;4.70;76.40;;;;;;6104183;23;19917;-78
2021/12/17 16:58:55;;;;;;;;;;;4.60;76.00;;;;;;6106934;23;19925;-79
2021/12/17 17:01:24;;;;;;;;;;;4.40;76.40;;;;;;6077106;23;19937;-79
2021/12/17 17:03:50;;;;;;;;;;;4.40;76.20;;;;;;6100394;23;19925;-80
2021/12/17 17:06:18;;;;;;;;;;;4.20;76.10;;;;;;6104186;23;19921;-79
2021/12/17 17:08:46;;;;;;;;;;;4.20;76.70;;;;;;6099441;23;19928;-80
2021/12/17 17:11:15;;;;;;;;;;;4.10;76.30;;;;;;6102196;23;19917;-78
2021/12/17 17:13:42;;;;;;;;;;;4.00;77.00;;;;;;6104583;23;19987;-78
2021/12/17 17:16:09;;;;;;;;;;;3.90;77.60;;;;;;6101525;23;19973;-80
2021/12/17 17:18:37;;;;;;;;;;;3.80;77.40;;;;;;6103088;23;19921;-80
2021/12/17 17:21:05;;;;;;;;;;;3.70;77.60;;;;;;6102358;23;19929;-81
2021/12/17 17:23:33;;;;;;;;;;;3.70;78.20;;;;;;6078855;23;19917;-78
2021/12/17 17:26:00;;;;;;;;;;;3.60;78.80;;;;;;6111795;23;19928;-80
2021/12/17 17:28:27;;;;;;;;;;;3.70;82.40;;;;;;6070938;23;19921;-79
2021/12/17 17:30:54;;;;;;;;;;;3.70;82.00;;;;;;6105926;23;19917;-80
2021/12/17 17:33:22;;;;;;;;;;;3.70;81.50;;;;;;6099763;23;19921;-78
2021/12/17 17:35:49;;;;;;;;;;;3.70;81.00;;;;;;6104316;23;19918;-79
2021/12/17 17:38:16;;;;;;;;;;;3.60;81.40;;;;;;6097854;23;19941;-79
2021/12/17 17:40:43;;;;;;;;;;;3.50;80.20;;;;;;6102967;23;19923;-79
2021/12/17 17:43:11;;;;;;;;;;;3.40;80.00;;;;;;6101495;23;19999;-79
2021/12/17 17:45:38;;;;;;;;;;;3.20;80.30;;;;;;6107976;23;19917;-80
2021/12/17 17:48:06;;;;;;;;;;;3.10;79.10;;;;;;6094524;23;19917;-80
2021/12/17 17:50:36;;;;;;;;;;;3.00;79.10;;;;;;6106688;23;19929;-79
2021/12/17 17:53:03;;;;;;;;;;;2.90;79.00;;;;;;6114848;23;19917;-79
2021/12/17 18:33:34;;;;;;;;;;;2.10;84.00;;;;;;6072353;23;19928;-78